createdAt,value
2019-03-12T00:02:52.236Z,4.58
2019-03-12T00:07:55.577Z,4.53
2019-03-12T00:12:58.643Z,4.40
2019-03-12T00:18:01.812Z,5.12
2019-03-12T00:23:05.087Z,6.45
2019-03-12T00:28:08.229Z,5.97
2019-03-12T00:33:11.368Z,4.83
2019-03-12T00:38:14.552Z,6.70
2019-03-12T00:43:17.984Z,7.37
2019-03-12T00:48:21.178Z,7.22
2019-03-12T00:53:24.131Z,6.90
2019-03-12T00:58:27.446Z,6.47
2019-03-12T01:03:30.599Z,7.45
2019-03-12T01:08:33.713Z,5.67
2019-03-12T01:13:36.929Z,8.13
2019-03-12T01:18:40.148Z,6.87
2019-03-12T01:23:43.439Z,6.40
2019-03-12T01:28:46.698Z,6.53
2019-03-12T01:33:49.768Z,6.87
2019-03-12T01:38:52.716Z,8.00
2019-03-12T01:43:55.874Z,5.50
2019-03-12T01:48:59.195Z,6.65
2019-03-12T01:54:02.393Z,7.70
2019-03-12T01:59:05.508Z,6.28
2019-03-12T02:04:08.453Z,6.92
2019-03-12T02:09:11.864Z,7.62
2019-03-12T02:14:27.123Z,5.87
2019-03-12T02:19:30.446Z,8.93
2019-03-12T02:24:33.641Z,8.05
2019-03-12T02:29:36.633Z,9.08
2019-03-12T02:34:39.794Z,9.13
2019-03-12T02:39:42.831Z,8.05
2019-03-12T02:44:45.882Z,8.33
2019-03-12T02:49:49.138Z,8.88
2019-03-12T02:54:52.070Z,9.40
2019-03-12T02:59:55.212Z,9.40
2019-03-12T03:04:58.257Z,8.13
2019-03-12T03:10:01.259Z,7.92
2019-03-12T03:15:12.803Z,8.57
2019-03-12T03:20:15.918Z,6.90
2019-03-12T03:25:19.001Z,9.75
2019-03-12T03:30:23.419Z,7.72
2019-03-12T03:35:26.525Z,9.43
2019-03-12T03:40:29.699Z,9.08
2019-03-12T03:45:33.010Z,8.60
2019-03-12T03:50:36.616Z,9.45
2019-03-12T03:55:39.892Z,8.23
2019-03-12T04:00:43.033Z,6.85
2019-03-12T04:05:46.343Z,9.05
2019-03-12T04:10:49.448Z,8.53
2019-03-12T04:15:52.774Z,6.17
2019-03-12T04:20:55.847Z,8.98
2019-03-12T04:25:58.970Z,6.28
2019-03-12T04:31:01.975Z,9.38
2019-03-12T04:36:05.057Z,9.23
2019-03-12T04:41:08.021Z,10.25
2019-03-12T04:46:11.203Z,8.80
2019-03-12T04:51:14.342Z,11.53
2019-03-12T04:56:17.405Z,10.93
2019-03-12T05:01:20.544Z,12.20
2019-03-12T05:06:23.775Z,11.97
2019-03-12T05:11:26.821Z,12.25
2019-03-12T05:16:29.986Z,11.93
2019-03-12T05:21:32.962Z,9.88
2019-03-12T05:26:36.151Z,13.68
2019-03-12T05:31:39.098Z,12.80
2019-03-12T05:36:42.075Z,12.33
2019-03-12T05:41:45.123Z,13.90
2019-03-12T05:46:48.517Z,15.00
2019-03-12T05:51:51.683Z,13.80
2019-03-12T05:56:54.771Z,14.13
2019-03-12T06:01:57.836Z,13.40
2019-03-12T06:07:00.893Z,13.00
2019-03-12T06:12:03.858Z,15.88
2019-03-12T06:17:06.790Z,14.53
2019-03-12T06:22:11.722Z,15.28
2019-03-12T06:27:18.004Z,14.15
2019-03-12T06:32:45.567Z,15.78
2019-03-12T06:38:08.105Z,13.18
2019-03-12T06:43:16.726Z,12.43
2019-03-12T06:48:39.374Z,13.10
2019-03-12T06:54:01.910Z,12.15
2019-03-12T06:59:27.237Z,7.00
2019-03-12T07:04:41.113Z,5.70
2019-03-12T07:10:02.363Z,4.70
2019-03-12T07:15:28.577Z,4.08
2019-03-12T07:20:53.832Z,5.00
2019-03-12T07:26:23.384Z,3.98
2019-03-12T07:31:49.015Z,4.65
2019-03-12T07:37:08.612Z,5.08
2019-03-12T07:42:21.155Z,4.40
2019-03-12T07:47:43.412Z,6.08
2019-03-12T07:53:08.743Z,4.47
2019-03-12T07:58:18.186Z,5.17
2019-03-12T08:03:49.855Z,5.67
2019-03-12T08:09:24.137Z,5.75
2019-03-12T08:14:46.831Z,5.17
2019-03-12T08:19:56.528Z,5.42
2019-03-12T08:25:25.086Z,5.25
2019-03-12T08:30:35.759Z,4.85
2019-03-12T08:35:45.227Z,5.28
2019-03-12T08:41:23.276Z,4.33
2019-03-12T08:46:37.409Z,5.23
2019-03-12T08:52:00.181Z,4.47
2019-03-12T08:57:25.590Z,5.75
2019-03-12T09:02:54.224Z,5.15
2019-03-12T09:08:22.710Z,6.00
2019-03-12T09:13:44.137Z,5.03
2019-03-12T09:19:16.316Z,5.37
2019-03-12T09:24:38.102Z,5.75
2019-03-12T09:29:59.443Z,5.15
2019-03-12T09:35:37.378Z,5.72
2019-03-12T09:40:47.401Z,5.65
2019-03-12T09:46:10.093Z,8.28
2019-03-12T09:51:30.355Z,6.55
2019-03-12T09:56:50.072Z,8.08
2019-03-12T10:02:24.426Z,6.20
2019-03-12T10:07:49.519Z,5.30
2019-03-12T10:13:11.011Z,5.53
2019-03-12T10:18:25.557Z,5.65
2019-03-12T10:23:47.174Z,4.33
2019-03-12T10:29:00.428Z,5.50
2019-03-12T10:34:32.284Z,5.58
2019-03-12T10:40:14.125Z,3.92
2019-03-12T10:45:26.974Z,3.00
2019-03-12T10:50:29.960Z,4.17
2019-03-12T10:55:33.012Z,3.10
2019-03-12T11:00:36.852Z,2.90
2019-03-12T11:05:45.981Z,3.40
2019-03-12T11:10:45.244Z,3.08
2019-03-12T11:15:48.438Z,1.90
2019-03-12T11:20:51.538Z,2.95
2019-03-12T11:25:54.640Z,3.12
2019-03-12T11:30:58.157Z,4.15
2019-03-12T11:36:01.275Z,2.50
2019-03-12T11:41:04.424Z,3.12
2019-03-12T11:46:08.115Z,3.75
2019-03-12T11:51:11.198Z,3.90
2019-03-12T11:56:14.214Z,3.92
2019-03-12T12:01:17.929Z,2.83
2019-03-12T12:06:20.924Z,3.67
2019-03-12T12:11:24.039Z,3.25
2019-03-12T12:16:26.983Z,3.37
2019-03-12T12:21:30.118Z,3.20
2019-03-12T12:26:33.152Z,2.67
2019-03-12T12:31:36.375Z,3.98
2019-03-12T12:36:39.366Z,3.70
2019-03-12T12:41:42.515Z,4.37
2019-03-12T12:46:45.713Z,3.62
2019-03-12T12:51:48.975Z,3.20
2019-03-12T12:56:52.084Z,3.15
2019-03-12T13:01:55.186Z,3.55
2019-03-12T13:06:58.255Z,2.77
2019-03-12T13:12:01.426Z,3.77
2019-03-12T13:17:04.498Z,3.62
2019-03-12T13:22:07.815Z,2.87
2019-03-12T13:27:11.006Z,3.20
2019-03-12T13:32:14.219Z,3.08
2019-03-12T13:37:17.399Z,2.85
2019-03-12T13:42:20.676Z,2.58
2019-03-12T13:47:28.713Z,2.90
2019-03-12T13:52:30.107Z,3.62
2019-03-12T13:57:33.182Z,4.35
2019-03-12T14:02:36.805Z,3.70
2019-03-12T14:07:39.844Z,4.35
2019-03-12T14:12:43.350Z,3.50
2019-03-12T14:17:46.878Z,3.77
2019-03-12T14:22:50.284Z,3.75
2019-03-12T14:27:53.462Z,3.85
2019-03-12T14:32:56.450Z,3.95
2019-03-12T14:38:00.034Z,3.80
2019-03-12T14:43:03.953Z,4.00
2019-03-12T14:48:28.357Z,4.20
2019-03-12T14:53:32.079Z,3.75
2019-03-12T14:58:35.428Z,3.77
2019-03-12T15:03:38.598Z,3.40
2019-03-12T15:08:41.925Z,3.75
2019-03-12T15:13:45.462Z,3.85
2019-03-12T15:18:48.492Z,4.78
2019-03-12T15:23:51.781Z,4.00
2019-03-12T15:28:54.813Z,4.10
2019-03-12T15:33:57.928Z,2.92
2019-03-12T15:39:01.016Z,3.60
2019-03-12T15:44:04.141Z,3.97
2019-03-12T15:49:07.253Z,3.95
2019-03-12T15:54:10.267Z,4.35
2019-03-12T15:59:13.504Z,4.70
2019-03-12T16:04:16.572Z,4.00
2019-03-12T16:09:19.543Z,3.25
2019-03-12T16:14:23.031Z,3.85
2019-03-12T16:19:26.140Z,4.17
2019-03-12T16:24:29.260Z,3.15
2019-03-12T16:29:32.242Z,4.30
2019-03-12T16:34:35.318Z,3.42
2019-03-12T16:39:38.439Z,3.83
2019-03-12T16:44:41.703Z,3.72
2019-03-12T16:49:44.731Z,3.58
2019-03-12T16:54:48.000Z,3.80
2019-03-12T16:59:51.221Z,3.67
2019-03-12T17:04:54.518Z,3.95
2019-03-12T17:09:57.602Z,4.17
2019-03-12T17:15:00.856Z,4.78
2019-03-12T17:20:04.603Z,5.67
2019-03-12T17:25:08.987Z,7.80
2019-03-12T17:30:15.605Z,6.08
2019-03-12T17:35:22.011Z,6.20
2019-03-12T17:40:25.088Z,7.37
2019-03-12T17:45:28.079Z,7.22
2019-03-12T17:50:31.048Z,8.53
2019-03-12T17:55:34.080Z,7.83
2019-03-12T18:00:39.328Z,7.10
2019-03-12T18:05:42.428Z,8.03
2019-03-12T18:10:45.611Z,7.78
2019-03-12T18:15:48.775Z,7.15
2019-03-12T18:20:51.911Z,8.38
2019-03-12T18:25:55.252Z,8.73
2019-03-12T18:30:58.247Z,9.18
2019-03-12T18:36:01.338Z,10.15
2019-03-12T18:41:04.534Z,11.15
2019-03-12T18:46:07.652Z,12.43
2019-03-12T18:51:10.781Z,13.05
2019-03-12T18:56:13.907Z,13.48
2019-03-12T19:01:16.985Z,13.23
2019-03-12T19:06:20.099Z,13.88
2019-03-12T19:11:23.272Z,14.33
2019-03-12T19:16:26.518Z,14.93
2019-03-12T19:21:29.772Z,14.47
2019-03-12T19:26:32.848Z,14.00
2019-03-12T19:31:47.655Z,14.73
2019-03-12T19:36:51.003Z,13.50
2019-03-12T19:41:54.046Z,13.77
2019-03-12T19:46:57.427Z,13.40
2019-03-12T19:52:00.618Z,13.22
2019-03-12T19:57:03.792Z,13.68
2019-03-12T20:02:15.937Z,13.60
2019-03-12T20:07:14.264Z,11.65
2019-03-12T20:13:12.667Z,12.40
2019-03-12T20:19:07.978Z,12.82
2019-03-12T20:25:19.496Z,11.65
2019-03-12T20:31:34.145Z,10.80
2019-03-12T20:37:43.759Z,11.65
2019-03-12T20:43:49.154Z,10.55
2019-03-12T20:49:54.222Z,12.10
2019-03-12T20:55:41.359Z,10.65
2019-03-12T21:02:02.844Z,12.53
2019-03-12T21:08:01.555Z,12.35
2019-03-12T21:14:24.123Z,13.32
2019-03-12T21:20:23.371Z,13.08
2019-03-12T21:25:50.426Z,14.28
2019-03-12T21:30:53.809Z,15.23
2019-03-12T21:35:58.007Z,11.78
2019-03-12T21:41:01.503Z,12.47
2019-03-12T21:46:04.895Z,13.68
2019-03-12T21:51:07.997Z,13.22
2019-03-12T21:56:10.978Z,13.20
2019-03-12T22:01:14.469Z,11.73
2019-03-12T22:06:17.804Z,12.20
2019-03-12T22:11:21.224Z,11.88
2019-03-12T22:16:24.389Z,11.90
2019-03-12T22:21:49.968Z,12.20
2019-03-12T22:26:53.265Z,11.45
2019-03-12T22:31:56.308Z,13.55
2019-03-12T22:36:59.402Z,11.05
2019-03-12T22:42:02.537Z,12.40
2019-03-12T22:47:05.698Z,11.25
2019-03-12T22:52:08.847Z,10.93
2019-03-12T22:57:12.221Z,11.68
2019-03-12T23:02:15.416Z,11.47
2019-03-12T23:07:18.569Z,10.95
2019-03-12T23:12:21.910Z,11.33
2019-03-12T23:17:25.035Z,12.70
2019-03-12T23:22:28.333Z,12.25
2019-03-12T23:27:31.923Z,11.70
2019-03-12T23:32:35.471Z,12.25
2019-03-12T23:37:38.548Z,11.03
2019-03-12T23:42:42.042Z,11.63
2019-03-12T23:47:45.492Z,12.60
2019-03-12T23:52:48.695Z,11.80
2019-03-12T23:57:51.839Z,11.73
